MMTO/TLC METAR and TAF weather

Enter ICAO airport designator
Station Type Date Time Source
MMTO METAR 2019/05/20 09:47 UTC NOAA

MMTO 200947Z 00000KT 5SM SCT200 09/05 A3033 RMK 8/002 HZY


Station Type Date Time Source
MMTO Decoded METAR 2019/05/20 09:47 UTC NOAA

Toluca / Jose Maria , Mexico (MMTO) 19-21N 099-34W
May 20, 2019 - 05:47 AM EDT / 2019.05.20 0947 UTC
Wind: Calm:0
Visibility: 5 mile(s):0
Sky conditions: partly cloudy
Temperature: 48 F (9 C)
Dew Point: 41 F (5 C)
Relative Humidity: 75%
Pressure (altimeter): 30.33 in. Hg (1027 hPa)
ob: MMTO 200947Z 00000KT 5SM SCT200 09/05 A3033 RMK 8/002 HZY
cycle: 10

Station Type Date Time Source
MMTO TAF 2019/05/20 12:11 UTC NOAA

TAF MMTO 201004Z 2012/2118 00000KT 5SM HZ SCT200 TX26/2021Z TN09/2012Z
TEMPO 2012/2016 3SM HZ FU
FM201800 25010KT 6SM HZ SCT015 SCT070 BKN200 PROB40 2022/2102 5SM -TSRA BKN015CB OVC070
FM210600 03005KT 6SM HZ SCT015 SCT080 BKN220
BECMG 2110/2112 01004KT

Example: see airport list